createdAt,value
2022-10-22T00:24:39.811Z,13.10
2022-10-22T00:29:43.345Z,13.10
2022-10-22T00:42:23.682Z,13.00
2022-10-22T00:47:30.963Z,13.00
2022-10-22T00:52:34.397Z,12.90
2022-10-22T00:57:39.082Z,12.80
2022-10-22T01:02:43.029Z,12.70
2022-10-22T01:07:50.476Z,12.60
2022-10-22T01:13:07.921Z,12.60
2022-10-22T01:18:19.703Z,12.60
2022-10-22T01:23:47.665Z,12.60
2022-10-22T01:29:00.491Z,12.70
2022-10-22T01:34:04.390Z,12.70
2022-10-22T01:39:08.544Z,12.80
2022-10-22T01:44:25.036Z,12.80
2022-10-22T01:49:37.108Z,12.60
2022-10-22T01:54:46.335Z,12.60
2022-10-22T02:00:00.043Z,12.40
2022-10-22T02:05:08.893Z,12.30
2022-10-22T02:10:13.027Z,12.30
2022-10-22T02:15:19.738Z,12.30
2022-10-22T02:20:27.331Z,12.30
2022-10-22T02:25:35.316Z,12.30
2022-10-22T02:30:42.954Z,12.30
2022-10-22T02:35:46.837Z,12.30
2022-10-22T02:40:50.145Z,12.30
2022-10-22T02:45:54.581Z,12.20
2022-10-22T02:50:57.948Z,12.10
2022-10-22T02:56:01.106Z,12.10
2022-10-22T03:01:05.921Z,12.10
2022-10-22T03:06:09.177Z,12.10
2022-10-22T03:11:12.294Z,12.20
2022-10-22T03:16:16.871Z,12.20
2022-10-22T03:21:28.120Z,12.20
2022-10-22T03:26:31.752Z,12.20
2022-10-22T03:31:36.151Z,12.20
2022-10-22T03:36:40.115Z,12.20
2022-10-22T03:41:44.452Z,12.10
2022-10-22T04:31:42.124Z,12.10
2022-10-22T04:36:45.156Z,12.10
2022-10-22T04:41:48.230Z,12.00
2022-10-22T04:46:52.625Z,12.00
2022-10-22T04:51:55.794Z,12.10
2022-10-22T04:56:58.938Z,12.20
2022-10-22T05:02:03.425Z,11.90
2022-10-22T05:07:06.480Z,11.90
2022-10-22T05:12:09.622Z,11.80
2022-10-22T05:17:14.170Z,11.70
2022-10-22T05:22:17.224Z,11.70
2022-10-22T05:27:20.282Z,11.60
2022-10-22T05:32:24.761Z,11.60
2022-10-22T05:37:27.828Z,11.60
2022-10-22T05:42:31.896Z,11.50
2022-10-22T05:47:36.453Z,11.50
2022-10-22T05:52:40.329Z,11.50
2022-10-22T05:57:43.730Z,11.50
2022-10-22T06:02:51.642Z,11.50
2022-10-22T06:07:56.038Z,11.60
2022-10-22T06:13:01.510Z,11.50
2022-10-22T06:18:06.068Z,11.60
2022-10-22T06:23:09.196Z,11.70
2022-10-22T06:28:12.462Z,11.80
2022-10-22T06:33:17.098Z,12.00
2022-10-22T06:38:20.249Z,12.10
2022-10-22T06:43:23.307Z,12.10
2022-10-22T06:48:28.253Z,12.20
2022-10-22T06:53:31.492Z,12.30
2022-10-22T06:58:34.918Z,12.40
2022-10-22T07:03:40.400Z,12.60
2022-10-22T07:08:43.961Z,12.70
2022-10-22T07:13:48.113Z,13.00
2022-10-22T07:18:52.508Z,13.20
2022-10-22T07:23:55.660Z,13.40
2022-10-22T07:28:59.394Z,13.50
2022-10-22T07:34:03.920Z,13.60
2022-10-22T07:39:06.972Z,13.90
2022-10-22T07:44:10.128Z,14.00
2022-10-22T07:49:14.524Z,14.00
2022-10-22T07:54:19.291Z,14.10
2022-10-22T07:59:22.538Z,14.30
2022-10-22T08:04:26.898Z,14.50
2022-10-22T08:09:29.945Z,14.50
2022-10-22T08:14:33.202Z,14.60
2022-10-22T08:19:37.979Z,14.60
2022-10-22T08:24:41.548Z,14.70
2022-10-22T08:29:44.678Z,14.70
2022-10-22T08:34:49.249Z,14.90
2022-10-22T08:39:52.710Z,15.00
2022-10-22T08:45:06.563Z,15.20
2022-10-22T08:50:14.895Z,15.50
2022-10-22T08:55:18.212Z,15.70
2022-10-22T09:00:24.422Z,15.60
2022-10-22T09:05:39.440Z,15.50
2022-10-22T09:10:45.966Z,15.20
2022-10-22T09:15:53.669Z,15.40
2022-10-22T09:21:03.940Z,15.50
2022-10-22T09:26:14.831Z,15.60
2022-10-22T09:45:38.714Z,16.60
2022-10-22T09:50:44.790Z,16.60
2022-10-22T09:55:54.074Z,16.40
2022-10-22T10:01:00.284Z,16.30
2022-10-22T10:06:05.970Z,16.20
2022-10-22T10:11:14.707Z,16.10
2022-10-22T10:16:31.042Z,16.10
2022-10-22T10:21:40.993Z,16.40
2022-10-22T10:26:48.849Z,16.70
2022-10-22T10:32:08.061Z,16.80
2022-10-22T10:37:19.158Z,16.90
2022-10-22T10:42:31.262Z,17.10
2022-10-22T10:47:54.980Z,17.20
2022-10-22T10:53:11.508Z,17.90
2022-10-22T10:58:21.265Z,18.20
2022-10-22T11:03:58.816Z,19.00
2022-10-22T11:09:07.176Z,19.30
2022-10-22T11:14:14.787Z,19.50
2022-10-22T11:19:46.062Z,19.00
2022-10-22T11:24:53.756Z,19.10
2022-10-22T11:30:03.858Z,18.90
2022-10-22T11:35:12.810Z,18.50
2022-10-22T11:40:20.304Z,18.50
2022-10-22T11:45:30.033Z,18.70
2022-10-22T11:50:48.151Z,19.40
2022-10-22T11:55:52.830Z,19.20
2022-10-22T12:00:57.764Z,20.10
2022-10-22T12:06:08.561Z,20.70
2022-10-22T12:11:20.519Z,21.10
2022-10-22T12:16:32.321Z,21.70
2022-10-22T12:21:53.370Z,22.70
2022-10-22T12:26:56.709Z,22.90
2022-10-22T13:24:51.456Z,22.00
2022-10-22T13:29:55.236Z,21.80
2022-10-22T13:35:00.586Z,21.90
2022-10-22T13:40:12.344Z,22.00
2022-10-22T13:45:16.642Z,21.80
2022-10-22T13:50:21.290Z,21.00
2022-10-22T13:55:29.119Z,20.30
2022-10-22T14:00:32.661Z,19.70
2022-10-22T14:05:35.853Z,19.40
2022-10-22T14:33:21.197Z,18.20
2022-10-22T14:38:24.281Z,18.10
2022-10-22T14:43:29.911Z,17.90
2022-10-22T14:48:34.378Z,17.90
2022-10-22T14:53:37.524Z,18.00
2022-10-22T14:58:41.464Z,17.90
2022-10-22T15:03:45.903Z,17.60
2022-10-22T15:08:49.422Z,17.20
2022-10-22T15:13:53.002Z,17.10
2022-10-22T15:18:57.531Z,16.80
2022-10-22T15:24:01.389Z,16.50
2022-10-22T15:29:05.297Z,16.20
2022-10-22T15:34:10.083Z,15.80
2022-10-22T15:39:13.646Z,15.50
2022-10-22T15:44:18.988Z,15.30
2022-10-22T15:49:24.374Z,15.00
2022-10-22T15:54:30.125Z,14.70
2022-10-22T15:59:33.293Z,14.60
2022-10-22T16:04:37.916Z,14.50
2022-10-22T16:25:39.339Z,13.80
2022-10-22T16:30:44.460Z,13.50
2022-10-22T16:35:48.571Z,13.30
2022-10-22T16:40:51.613Z,13.30
2022-10-22T16:45:56.056Z,13.20
2022-10-22T16:50:59.928Z,13.10
2022-10-22T16:56:03.429Z,12.90
2022-10-22T17:01:09.347Z,13.00
2022-10-22T17:20:30.579Z,13.30
2022-10-22T17:25:37.350Z,13.40
2022-10-22T17:30:41.321Z,13.30
2022-10-22T17:35:45.924Z,13.10
2022-10-22T17:40:49.266Z,12.90
2022-10-22T17:46:06.543Z,12.70
2022-10-22T17:51:12.729Z,12.60
2022-10-22T17:56:18.167Z,12.50
2022-10-22T18:01:23.717Z,12.50
2022-10-22T18:06:28.919Z,12.60
2022-10-22T18:11:32.771Z,12.60
2022-10-22T18:16:36.351Z,12.80
2022-10-22T18:21:40.960Z,13.10
2022-10-22T18:26:44.727Z,13.30
2022-10-22T18:31:48.497Z,13.40
2022-10-22T18:36:56.419Z,13.50
2022-10-22T18:41:59.601Z,13.30
2022-10-22T18:47:02.990Z,13.20
2022-10-22T18:52:07.585Z,13.00
2022-10-22T18:57:10.827Z,13.00
2022-10-22T19:02:17.169Z,12.80
2022-10-22T19:07:21.684Z,12.60
2022-10-22T19:12:25.430Z,12.50
2022-10-22T19:17:28.732Z,12.40
2022-10-22T19:22:33.504Z,12.20
2022-10-22T19:27:36.637Z,12.20
2022-10-22T19:32:39.885Z,12.10
2022-10-22T19:37:48.279Z,12.10
2022-10-22T19:42:52.051Z,12.00
2022-10-22T19:47:55.574Z,12.00
2022-10-22T19:53:01.604Z,12.20
2022-10-22T19:58:05.040Z,12.50
2022-10-22T20:03:08.215Z,12.90
2022-10-22T20:08:13.755Z,13.00
2022-10-22T20:13:18.153Z,13.00
2022-10-22T20:18:22.519Z,13.10
2022-10-22T20:23:27.762Z,13.20
2022-10-22T20:28:31.403Z,13.20
2022-10-22T20:33:35.492Z,13.20
2022-10-22T20:38:40.214Z,13.20
2022-10-22T20:43:44.574Z,13.10
2022-10-22T20:48:51.000Z,13.10
2022-10-22T20:53:55.826Z,13.10
2022-10-22T20:59:08.157Z,13.00
2022-10-22T21:04:11.771Z,13.10
2022-10-22T21:09:16.480Z,13.30
2022-10-22T21:14:22.121Z,13.30
2022-10-22T21:19:25.578Z,13.30
2022-10-22T21:24:30.271Z,13.30
2022-10-22T21:29:33.408Z,13.40
2022-10-22T21:34:38.874Z,13.30
2022-10-22T21:39:43.584Z,13.20
2022-10-22T21:44:46.787Z,13.10
2022-10-22T21:49:50.115Z,12.90
2022-10-22T21:54:54.719Z,12.80
2022-10-22T21:59:58.105Z,12.80
2022-10-22T22:05:01.359Z,12.70
2022-10-22T22:10:07.872Z,12.60
2022-10-22T22:15:11.501Z,12.50
2022-10-22T22:20:15.004Z,12.30
2022-10-22T22:25:19.616Z,12.00
2022-10-22T22:30:23.048Z,11.80
2022-10-22T22:35:26.328Z,11.70
2022-10-22T22:40:33.081Z,11.50
2022-10-22T22:45:39.189Z,11.40
2022-10-22T22:50:42.209Z,11.30
2022-10-22T22:55:46.586Z,11.10
2022-10-22T23:00:49.644Z,11.10
2022-10-22T23:05:52.657Z,11.10
2022-10-22T23:11:23.644Z,10.90
2022-10-22T23:16:29.689Z,10.80
2022-10-22T23:21:35.234Z,10.80
2022-10-22T23:26:41.366Z,10.80
2022-10-22T23:31:45.916Z,10.80
2022-10-22T23:36:49.281Z,10.80
2022-10-22T23:41:53.953Z,10.60
2022-10-22T23:46:57.171Z,10.40
2022-10-22T23:52:00.643Z,10.30
2022-10-22T23:57:05.135Z,10.40
